sensor_id;sensor_type;location;lat;lon;timestamp;P1;durP1;ratioP1;P2;durP2;ratioP2
23266;SDS011;11802;53.160;8.214;2023-07-13T00:01:03;12.43;;;4.87;;
23266;SDS011;11802;53.160;8.214;2023-07-13T00:03:29;6.87;;;5.27;;
23266;SDS011;11802;53.160;8.214;2023-07-13T00:06:00;10.83;;;5.40;;
23266;SDS011;11802;53.160;8.214;2023-07-13T00:08:26;7.15;;;5.15;;
23266;SDS011;11802;53.160;8.214;2023-07-13T00:10:55;11.32;;;5.30;;
23266;SDS011;11802;53.160;8.214;2023-07-13T00:13:20;8.70;;;5.07;;
23266;SDS011;11802;53.160;8.214;2023-07-13T00:15:46;11.60;;;5.68;;
23266;SDS011;11802;53.160;8.214;2023-07-13T00:18:11;9.75;;;5.25;;
23266;SDS011;11802;53.160;8.214;2023-07-13T00:20:37;10.43;;;5.40;;
23266;SDS011;11802;53.160;8.214;2023-07-13T00:23:02;6.30;;;5.15;;
23266;SDS011;11802;53.160;8.214;2023-07-13T00:25:28;8.63;;;5.13;;
23266;SDS011;11802;53.160;8.214;2023-07-13T00:27:54;9.23;;;5.53;;
23266;SDS011;11802;53.160;8.214;2023-07-13T00:30:20;6.53;;;4.60;;
23266;SDS011;11802;53.160;8.214;2023-07-13T00:32:46;15.97;;;5.87;;
23266;SDS011;11802;53.160;8.214;2023-07-13T00:35:13;8.23;;;5.17;;
23266;SDS011;11802;53.160;8.214;2023-07-13T00:37:39;9.70;;;4.90;;
23266;SDS011;11802;53.160;8.214;2023-07-13T00:40:05;12.83;;;5.37;;
23266;SDS011;11802;53.160;8.214;2023-07-13T00:42:31;10.47;;;5.47;;
23266;SDS011;11802;53.160;8.214;2023-07-13T00:47:49;11.13;;;4.63;;
23266;SDS011;11802;53.160;8.214;2023-07-13T00:50:15;9.43;;;4.87;;
23266;SDS011;11802;53.160;8.214;2023-07-13T00:52:45;5.30;;;4.53;;
23266;SDS011;11802;53.160;8.214;2023-07-13T00:55:13;11.57;;;4.57;;
23266;SDS011;11802;53.160;8.214;2023-07-13T00:57:40;8.00;;;5.10;;
23266;SDS011;11802;53.160;8.214;2023-07-13T01:00:07;6.63;;;4.53;;
23266;SDS011;11802;53.160;8.214;2023-07-13T01:02:34;8.57;;;4.00;;
23266;SDS011;11802;53.160;8.214;2023-07-13T01:05:01;8.40;;;4.40;;
23266;SDS011;11802;53.160;8.214;2023-07-13T01:07:27;11.63;;;4.47;;
23266;SDS011;11802;53.160;8.214;2023-07-13T01:09:52;10.90;;;4.60;;
23266;SDS011;11802;53.160;8.214;2023-07-13T01:12:18;9.13;;;4.53;;
23266;SDS011;11802;53.160;8.214;2023-07-13T01:14:43;6.77;;;3.63;;
23266;SDS011;11802;53.160;8.214;2023-07-13T01:17:09;9.47;;;3.60;;
23266;SDS011;11802;53.160;8.214;2023-07-13T01:22:08;8.00;;;3.37;;
23266;SDS011;11802;53.160;8.214;2023-07-13T01:24:36;10.53;;;3.50;;
23266;SDS011;11802;53.160;8.214;2023-07-13T01:27:03;8.93;;;3.33;;
23266;SDS011;11802;53.160;8.214;2023-07-13T01:29:31;7.50;;;3.87;;
23266;SDS011;11802;53.160;8.214;2023-07-13T01:31:57;9.93;;;3.63;;
23266;SDS011;11802;53.160;8.214;2023-07-13T01:34:23;13.63;;;3.70;;
23266;SDS011;11802;53.160;8.214;2023-07-13T01:36:48;9.10;;;3.73;;
23266;SDS011;11802;53.160;8.214;2023-07-13T01:39:14;11.10;;;4.23;;
23266;SDS011;11802;53.160;8.214;2023-07-13T01:41:40;9.13;;;3.33;;
23266;SDS011;11802;53.160;8.214;2023-07-13T01:44:06;11.00;;;3.97;;
23266;SDS011;11802;53.160;8.214;2023-07-13T01:46:31;7.50;;;3.73;;
23266;SDS011;11802;53.160;8.214;2023-07-13T01:48:57;11.00;;;3.70;;
23266;SDS011;11802;53.160;8.214;2023-07-13T01:51:22;9.57;;;3.23;;
23266;SDS011;11802;53.160;8.214;2023-07-13T01:53:48;8.83;;;3.67;;
23266;SDS011;11802;53.160;8.214;2023-07-13T01:56:14;9.93;;;4.00;;
23266;SDS011;11802;53.160;8.214;2023-07-13T01:58:40;7.63;;;3.60;;
23266;SDS011;11802;53.160;8.214;2023-07-13T02:01:05;9.67;;;3.80;;
23266;SDS011;11802;53.160;8.214;2023-07-13T02:03:31;11.07;;;3.90;;
23266;SDS011;11802;53.160;8.214;2023-07-13T02:05:56;10.97;;;4.07;;
23266;SDS011;11802;53.160;8.214;2023-07-13T02:08:22;14.57;;;3.90;;
23266;SDS011;11802;53.160;8.214;2023-07-13T02:10:47;10.30;;;3.50;;
23266;SDS011;11802;53.160;8.214;2023-07-13T02:13:13;11.50;;;4.27;;
23266;SDS011;11802;53.160;8.214;2023-07-13T02:15:39;10.97;;;4.10;;
23266;SDS011;11802;53.160;8.214;2023-07-13T02:18:05;7.23;;;4.33;;
23266;SDS011;11802;53.160;8.214;2023-07-13T02:20:31;12.80;;;4.37;;
23266;SDS011;11802;53.160;8.214;2023-07-13T02:22:56;14.47;;;4.73;;
23266;SDS011;11802;53.160;8.214;2023-07-13T02:25:22;11.70;;;4.47;;
23266;SDS011;11802;53.160;8.214;2023-07-13T02:27:47;7.60;;;4.20;;
23266;SDS011;11802;53.160;8.214;2023-07-13T02:30:13;9.80;;;4.60;;
23266;SDS011;11802;53.160;8.214;2023-07-13T02:32:39;10.65;;;4.85;;
23266;SDS011;11802;53.160;8.214;2023-07-13T02:35:04;9.47;;;3.83;;
23266;SDS011;11802;53.160;8.214;2023-07-13T02:37:30;12.20;;;4.67;;
23266;SDS011;11802;53.160;8.214;2023-07-13T02:39:56;14.60;;;4.87;;
23266;SDS011;11802;53.160;8.214;2023-07-13T02:42:22;14.47;;;4.83;;
23266;SDS011;11802;53.160;8.214;2023-07-13T02:44:47;11.77;;;4.57;;
23266;SDS011;11802;53.160;8.214;2023-07-13T02:47:14;8.53;;;4.03;;
23266;SDS011;11802;53.160;8.214;2023-07-13T02:49:40;12.67;;;4.73;;
23266;SDS011;11802;53.160;8.214;2023-07-13T02:52:05;12.97;;;4.40;;
23266;SDS011;11802;53.160;8.214;2023-07-13T02:54:31;9.10;;;4.80;;
23266;SDS011;11802;53.160;8.214;2023-07-13T02:56:57;12.93;;;4.87;;
23266;SDS011;11802;53.160;8.214;2023-07-13T02:59:22;15.80;;;4.53;;
23266;SDS011;11802;53.160;8.214;2023-07-13T03:01:48;10.57;;;4.33;;
23266;SDS011;11802;53.160;8.214;2023-07-13T03:04:13;11.03;;;4.80;;
23266;SDS011;11802;53.160;8.214;2023-07-13T03:06:39;9.10;;;4.03;;
23266;SDS011;11802;53.160;8.214;2023-07-13T03:09:04;10.70;;;4.07;;
23266;SDS011;11802;53.160;8.214;2023-07-13T03:11:30;6.67;;;3.17;;
23266;SDS011;11802;53.160;8.214;2023-07-13T03:13:56;9.50;;;4.00;;
23266;SDS011;11802;53.160;8.214;2023-07-13T03:16:22;9.50;;;4.17;;
23266;SDS011;11802;53.160;8.214;2023-07-13T03:18:48;12.80;;;4.07;;
23266;SDS011;11802;53.160;8.214;2023-07-13T03:21:13;9.50;;;4.27;;
23266;SDS011;11802;53.160;8.214;2023-07-13T03:23:39;10.27;;;3.93;;
23266;SDS011;11802;53.160;8.214;2023-07-13T03:26:06;9.00;;;3.73;;
23266;SDS011;11802;53.160;8.214;2023-07-13T03:28:34;15.33;;;3.93;;
23266;SDS011;11802;53.160;8.214;2023-07-13T03:31:03;12.90;;;3.80;;
23266;SDS011;11802;53.160;8.214;2023-07-13T03:33:31;12.03;;;4.27;;
23266;SDS011;11802;53.160;8.214;2023-07-13T03:35:56;12.30;;;3.70;;
23266;SDS011;11802;53.160;8.214;2023-07-13T03:38:22;10.73;;;3.80;;
23266;SDS011;11802;53.160;8.214;2023-07-13T03:40:48;9.77;;;3.60;;
23266;SDS011;11802;53.160;8.214;2023-07-13T03:43:14;14.13;;;4.07;;
23266;SDS011;11802;53.160;8.214;2023-07-13T03:45:39;17.03;;;3.93;;
23266;SDS011;11802;53.160;8.214;2023-07-13T03:48:05;11.30;;;3.80;;
23266;SDS011;11802;53.160;8.214;2023-07-13T03:50:31;17.48;;;4.10;;
23266;SDS011;11802;53.160;8.214;2023-07-13T03:52:57;11.63;;;3.73;;
23266;SDS011;11802;53.160;8.214;2023-07-13T03:55:23;13.87;;;3.93;;
23266;SDS011;11802;53.160;8.214;2023-07-13T03:57:53;11.80;;;3.80;;
23266;SDS011;11802;53.160;8.214;2023-07-13T04:00:23;12.80;;;3.30;;
23266;SDS011;11802;53.160;8.214;2023-07-13T04:02:48;13.03;;;3.97;;
23266;SDS011;11802;53.160;8.214;2023-07-13T04:05:14;12.45;;;3.47;;
23266;SDS011;11802;53.160;8.214;2023-07-13T04:07:40;6.53;;;3.13;;
23266;SDS011;11802;53.160;8.214;2023-07-13T04:10:06;14.67;;;3.30;;
23266;SDS011;11802;53.160;8.214;2023-07-13T04:12:31;7.53;;;3.00;;
23266;SDS011;11802;53.160;8.214;2023-07-13T04:14:57;10.00;;;3.20;;
23266;SDS011;11802;53.160;8.214;2023-07-13T04:17:23;8.07;;;3.20;;
23266;SDS011;11802;53.160;8.214;2023-07-13T04:19:48;11.60;;;3.73;;
23266;SDS011;11802;53.160;8.214;2023-07-13T04:22:14;13.13;;;3.43;;
23266;SDS011;11802;53.160;8.214;2023-07-13T04:24:39;13.15;;;3.95;;
23266;SDS011;11802;53.160;8.214;2023-07-13T04:27:05;12.17;;;3.50;;
23266;SDS011;11802;53.160;8.214;2023-07-13T04:29:31;12.98;;;3.28;;
23266;SDS011;11802;53.160;8.214;2023-07-13T04:31:57;19.33;;;4.15;;
23266;SDS011;11802;53.160;8.214;2023-07-13T04:34:22;11.13;;;3.40;;
23266;SDS011;11802;53.160;8.214;2023-07-13T04:36:49;9.63;;;3.13;;
23266;SDS011;11802;53.160;8.214;2023-07-13T04:39:14;11.38;;;3.60;;
23266;SDS011;11802;53.160;8.214;2023-07-13T04:41:42;14.30;;;3.75;;
23266;SDS011;11802;53.160;8.214;2023-07-13T04:44:07;9.82;;;3.33;;
23266;SDS011;11802;53.160;8.214;2023-07-13T04:46:33;13.20;;;4.32;;
23266;SDS011;11802;53.160;8.214;2023-07-13T04:48:58;11.88;;;3.72;;
23266;SDS011;11802;53.160;8.214;2023-07-13T04:51:24;11.60;;;3.72;;
23266;SDS011;11802;53.160;8.214;2023-07-13T04:53:49;15.18;;;3.38;;
23266;SDS011;11802;53.160;8.214;2023-07-13T04:56:15;16.33;;;3.58;;
23266;SDS011;11802;53.160;8.214;2023-07-13T04:58:41;9.18;;;3.25;;
23266;SDS011;11802;53.160;8.214;2023-07-13T05:01:06;12.30;;;3.15;;
23266;SDS011;11802;53.160;8.214;2023-07-13T05:03:33;13.10;;;3.97;;
23266;SDS011;11802;53.160;8.214;2023-07-13T05:06:00;14.57;;;3.63;;
23266;SDS011;11802;53.160;8.214;2023-07-13T05:08:28;11.60;;;3.28;;
23266;SDS011;11802;53.160;8.214;2023-07-13T05:10:53;8.07;;;3.08;;
23266;SDS011;11802;53.160;8.214;2023-07-13T05:13:19;11.45;;;2.88;;
23266;SDS011;11802;53.160;8.214;2023-07-13T05:15:47;10.52;;;3.30;;
23266;SDS011;11802;53.160;8.214;2023-07-13T05:18:19;13.32;;;3.53;;
23266;SDS011;11802;53.160;8.214;2023-07-13T05:20:45;13.60;;;3.30;;
23266;SDS011;11802;53.160;8.214;2023-07-13T05:23:10;13.48;;;3.35;;
23266;SDS011;11802;53.160;8.214;2023-07-13T05:25:36;8.95;;;3.10;;
23266;SDS011;11802;53.160;8.214;2023-07-13T05:28:01;10.90;;;3.63;;
23266;SDS011;11802;53.160;8.214;2023-07-13T05:30:27;13.82;;;4.03;;
23266;SDS011;11802;53.160;8.214;2023-07-13T05:32:52;11.65;;;3.15;;
23266;SDS011;11802;53.160;8.214;2023-07-13T05:35:18;14.70;;;3.90;;
23266;SDS011;11802;53.160;8.214;2023-07-13T05:37:43;14.20;;;3.40;;
23266;SDS011;11802;53.160;8.214;2023-07-13T05:40:09;11.75;;;3.40;;
23266;SDS011;11802;53.160;8.214;2023-07-13T05:42:35;14.02;;;3.78;;
23266;SDS011;11802;53.160;8.214;2023-07-13T05:45:01;15.13;;;3.85;;
23266;SDS011;11802;53.160;8.214;2023-07-13T05:47:27;11.75;;;3.13;;
23266;SDS011;11802;53.160;8.214;2023-07-13T05:49:52;11.13;;;3.67;;
23266;SDS011;11802;53.160;8.214;2023-07-13T05:52:18;10.18;;;3.50;;
23266;SDS011;11802;53.160;8.214;2023-07-13T05:54:44;16.50;;;3.65;;
23266;SDS011;11802;53.160;8.214;2023-07-13T05:57:09;14.13;;;3.42;;
23266;SDS011;11802;53.160;8.214;2023-07-13T05:59:35;11.73;;;3.15;;
23266;SDS011;11802;53.160;8.214;2023-07-13T06:02:01;11.95;;;3.25;;
23266;SDS011;11802;53.160;8.214;2023-07-13T06:04:26;7.20;;;2.65;;
23266;SDS011;11802;53.160;8.214;2023-07-13T06:06:52;15.45;;;3.53;;
23266;SDS011;11802;53.160;8.214;2023-07-13T06:09:18;12.80;;;3.60;;
23266;SDS011;11802;53.160;8.214;2023-07-13T06:11:43;8.63;;;3.10;;
23266;SDS011;11802;53.160;8.214;2023-07-13T06:14:09;12.18;;;3.17;;
23266;SDS011;11802;53.160;8.214;2023-07-13T06:16:35;10.73;;;3.22;;
23266;SDS011;11802;53.160;8.214;2023-07-13T06:19:01;7.78;;;2.50;;
23266;SDS011;11802;53.160;8.214;2023-07-13T06:21:26;13.15;;;3.17;;
23266;SDS011;11802;53.160;8.214;2023-07-13T06:23:52;10.68;;;3.15;;
23266;SDS011;11802;53.160;8.214;2023-07-13T06:26:18;9.70;;;3.03;;
23266;SDS011;11802;53.160;8.214;2023-07-13T06:28:44;10.60;;;3.33;;
23266;SDS011;11802;53.160;8.214;2023-07-13T06:31:11;8.80;;;2.72;;
23266;SDS011;11802;53.160;8.214;2023-07-13T06:33:38;9.30;;;3.15;;
23266;SDS011;11802;53.160;8.214;2023-07-13T06:36:04;6.90;;;2.40;;
23266;SDS011;11802;53.160;8.214;2023-07-13T06:38:31;11.52;;;2.60;;
23266;SDS011;11802;53.160;8.214;2023-07-13T06:40:57;12.50;;;3.03;;
23266;SDS011;11802;53.160;8.214;2023-07-13T06:43:22;9.82;;;3.17;;
23266;SDS011;11802;53.160;8.214;2023-07-13T06:45:50;7.97;;;2.38;;
23266;SDS011;11802;53.160;8.214;2023-07-13T06:48:16;7.90;;;2.28;;
23266;SDS011;11802;53.160;8.214;2023-07-13T06:50:42;9.52;;;2.90;;
23266;SDS011;11802;53.160;8.214;2023-07-13T06:53:09;6.80;;;2.33;;
23266;SDS011;11802;53.160;8.214;2023-07-13T06:55:35;9.20;;;2.17;;
23266;SDS011;11802;53.160;8.214;2023-07-13T06:58:01;10.20;;;2.40;;
23266;SDS011;11802;53.160;8.214;2023-07-13T07:00:26;7.00;;;2.47;;
23266;SDS011;11802;53.160;8.214;2023-07-13T07:02:52;10.48;;;2.40;;
23266;SDS011;11802;53.160;8.214;2023-07-13T07:05:17;8.48;;;2.40;;
23266;SDS011;11802;53.160;8.214;2023-07-13T07:07:47;6.85;;;2.58;;
23266;SDS011;11802;53.160;8.214;2023-07-13T07:10:13;8.27;;;2.55;;
23266;SDS011;11802;53.160;8.214;2023-07-13T07:12:39;10.98;;;3.35;;
23266;SDS011;11802;53.160;8.214;2023-07-13T07:15:05;12.07;;;2.38;;
23266;SDS011;11802;53.160;8.214;2023-07-13T07:17:31;9.68;;;3.20;;
23266;SDS011;11802;53.160;8.214;2023-07-13T07:19:56;7.88;;;2.85;;
23266;SDS011;11802;53.160;8.214;2023-07-13T07:22:22;10.80;;;2.70;;
23266;SDS011;11802;53.160;8.214;2023-07-13T07:24:47;9.55;;;2.90;;
23266;SDS011;11802;53.160;8.214;2023-07-13T07:27:13;8.18;;;2.25;;
23266;SDS011;11802;53.160;8.214;2023-07-13T07:29:38;7.95;;;2.30;;
23266;SDS011;11802;53.160;8.214;2023-07-13T07:32:04;10.80;;;2.70;;
23266;SDS011;11802;53.160;8.214;2023-07-13T07:34:30;9.93;;;2.33;;
23266;SDS011;11802;53.160;8.214;2023-07-13T07:36:58;6.30;;;2.17;;
23266;SDS011;11802;53.160;8.214;2023-07-13T07:39:25;7.55;;;2.33;;
23266;SDS011;11802;53.160;8.214;2023-07-13T07:41:51;12.00;;;2.72;;
23266;SDS011;11802;53.160;8.214;2023-07-13T07:44:17;5.82;;;2.20;;
23266;SDS011;11802;53.160;8.214;2023-07-13T07:46:42;8.15;;;2.30;;
23266;SDS011;11802;53.160;8.214;2023-07-13T07:49:08;9.98;;;2.58;;
23266;SDS011;11802;53.160;8.214;2023-07-13T07:51:33;9.05;;;2.53;;
23266;SDS011;11802;53.160;8.214;2023-07-13T07:53:59;6.00;;;2.28;;
23266;SDS011;11802;53.160;8.214;2023-07-13T07:56:24;10.02;;;2.90;;
23266;SDS011;11802;53.160;8.214;2023-07-13T07:58:50;6.47;;;2.28;;
23266;SDS011;11802;53.160;8.214;2023-07-13T08:01:16;6.95;;;2.13;;
23266;SDS011;11802;53.160;8.214;2023-07-13T08:03:41;8.32;;;2.53;;
23266;SDS011;11802;53.160;8.214;2023-07-13T08:06:07;6.60;;;2.20;;
23266;SDS011;11802;53.160;8.214;2023-07-13T08:08:32;6.93;;;1.85;;
23266;SDS011;11802;53.160;8.214;2023-07-13T08:11:02;5.05;;;1.90;;
23266;SDS011;11802;53.160;8.214;2023-07-13T08:13:30;8.30;;;2.13;;
23266;SDS011;11802;53.160;8.214;2023-07-13T08:15:55;6.75;;;2.20;;
23266;SDS011;11802;53.160;8.214;2023-07-13T08:18:21;6.97;;;2.60;;
23266;SDS011;11802;53.160;8.214;2023-07-13T08:20:46;5.88;;;1.85;;
23266;SDS011;11802;53.160;8.214;2023-07-13T08:23:12;6.10;;;2.35;;
23266;SDS011;11802;53.160;8.214;2023-07-13T08:25:37;7.10;;;2.05;;
23266;SDS011;11802;53.160;8.214;2023-07-13T08:28:03;6.88;;;1.80;;
23266;SDS011;11802;53.160;8.214;2023-07-13T08:30:29;7.78;;;2.05;;
23266;SDS011;11802;53.160;8.214;2023-07-13T08:32:55;7.93;;;2.25;;
23266;SDS011;11802;53.160;8.214;2023-07-13T08:35:22;4.60;;;1.60;;
23266;SDS011;11802;53.160;8.214;2023-07-13T08:37:47;5.45;;;1.73;;
23266;SDS011;11802;53.160;8.214;2023-07-13T08:40:13;4.50;;;1.50;;
23266;SDS011;11802;53.160;8.214;2023-07-13T08:45:14;6.90;;;1.95;;
23266;SDS011;11802;53.160;8.214;2023-07-13T08:47:48;6.50;;;1.70;;
23266;SDS011;11802;53.160;8.214;2023-07-13T08:50:21;5.75;;;1.60;;
23266;SDS011;11802;53.160;8.214;2023-07-13T08:52:51;7.80;;;1.88;;
23266;SDS011;11802;53.160;8.214;2023-07-13T08:55:21;4.88;;;1.63;;
23266;SDS011;11802;53.160;8.214;2023-07-13T08:58:10;6.90;;;1.95;;
23266;SDS011;11802;53.160;8.214;2023-07-13T09:00:46;5.63;;;1.77;;
23266;SDS011;11802;53.160;8.214;2023-07-13T09:03:21;6.05;;;1.67;;
23266;SDS011;11802;53.160;8.214;2023-07-13T09:05:51;4.85;;;1.77;;
23266;SDS011;11802;53.160;8.214;2023-07-13T09:11:18;6.28;;;1.70;;
23266;SDS011;11802;53.160;8.214;2023-07-13T09:14:10;5.85;;;1.70;;
23266;SDS011;11802;53.160;8.214;2023-07-13T09:17:03;4.63;;;1.80;;
23266;SDS011;11802;53.160;8.214;2023-07-13T09:19:31;5.47;;;1.65;;
23266;SDS011;11802;53.160;8.214;2023-07-13T09:21:59;6.05;;;1.88;;
23266;SDS011;11802;53.160;8.214;2023-07-13T09:27:21;4.55;;;1.40;;
23266;SDS011;11802;53.160;8.214;2023-07-13T09:29:56;3.67;;;1.88;;
23266;SDS011;11802;53.160;8.214;2023-07-13T09:32:28;5.88;;;1.80;;
23266;SDS011;11802;53.160;8.214;2023-07-13T09:34:54;4.40;;;1.58;;
23266;SDS011;11802;53.160;8.214;2023-07-13T09:37:21;38.85;;;5.18;;
23266;SDS011;11802;53.160;8.214;2023-07-13T09:39:52;55.28;;;8.02;;
23266;SDS011;11802;53.160;8.214;2023-07-13T09:42:20;9.38;;;1.75;;
23266;SDS011;11802;53.160;8.214;2023-07-13T09:47:17;6.18;;;1.63;;
23266;SDS011;11802;53.160;8.214;2023-07-13T09:52:23;4.65;;;1.83;;
23266;SDS011;11802;53.160;8.214;2023-07-13T09:54:50;8.40;;;1.98;;
23266;SDS011;11802;53.160;8.214;2023-07-13T09:57:17;4.90;;;1.80;;
23266;SDS011;11802;53.160;8.214;2023-07-13T09:59:45;4.82;;;1.60;;
23266;SDS011;11802;53.160;8.214;2023-07-13T10:02:45;4.18;;;1.55;;
23266;SDS011;11802;53.160;8.214;2023-07-13T10:05:10;6.80;;;1.80;;
23266;SDS011;11802;53.160;8.214;2023-07-13T10:07:39;5.93;;;1.92;;
23266;SDS011;11802;53.160;8.214;2023-07-13T10:10:16;5.45;;;1.60;;
23266;SDS011;11802;53.160;8.214;2023-07-13T10:12:45;4.15;;;1.50;;
23266;SDS011;11802;53.160;8.214;2023-07-13T10:15:21;4.25;;;1.40;;
23266;SDS011;11802;53.160;8.214;2023-07-13T10:17:49;4.32;;;1.58;;
23266;SDS011;11802;53.160;8.214;2023-07-13T10:20:16;3.75;;;1.63;;
23266;SDS011;11802;53.160;8.214;2023-07-13T10:25:21;3.97;;;2.03;;
23266;SDS011;11802;53.160;8.214;2023-07-13T10:27:50;5.93;;;2.72;;
23266;SDS011;11802;53.160;8.214;2023-07-13T10:32:54;4.38;;;1.77;;
23266;SDS011;11802;53.160;8.214;2023-07-13T10:35:23;4.97;;;1.60;;
23266;SDS011;11802;53.160;8.214;2023-07-13T10:37:56;5.43;;;1.63;;
23266;SDS011;11802;53.160;8.214;2023-07-13T10:40:35;3.75;;;1.70;;
23266;SDS011;11802;53.160;8.214;2023-07-13T10:43:04;5.75;;;1.95;;
23266;SDS011;11802;53.160;8.214;2023-07-13T10:45:38;4.70;;;2.10;;
23266;SDS011;11802;53.160;8.214;2023-07-13T10:48:05;5.22;;;1.95;;
23266;SDS011;11802;53.160;8.214;2023-07-13T10:50:35;7.05;;;2.70;;
23266;SDS011;11802;53.160;8.214;2023-07-13T10:53:19;8.85;;;2.97;;
23266;SDS011;11802;53.160;8.214;2023-07-13T10:58:37;3.85;;;1.67;;
23266;SDS011;11802;53.160;8.214;2023-07-13T11:01:08;2.90;;;1.42;;
23266;SDS011;11802;53.160;8.214;2023-07-13T11:03:54;4.07;;;1.40;;
23266;SDS011;11802;53.160;8.214;2023-07-13T11:09:17;2.83;;;1.10;;
23266;SDS011;11802;53.160;8.214;2023-07-13T11:12:00;3.30;;;1.17;;
23266;SDS011;11802;53.160;8.214;2023-07-13T11:14:42;2.53;;;1.00;;
23266;SDS011;11802;53.160;8.214;2023-07-13T11:17:32;6.53;;;1.50;;
23266;SDS011;11802;53.160;8.214;2023-07-13T11:20:19;1.92;;;1.13;;
23266;SDS011;11802;53.160;8.214;2023-07-13T11:27:45;2.67;;;1.27;;
23266;SDS011;11802;53.160;8.214;2023-07-13T11:35:32;4.47;;;1.90;;
23266;SDS011;11802;53.160;8.214;2023-07-13T11:38:01;2.10;;;1.23;;
23266;SDS011;11802;53.160;8.214;2023-07-13T11:40:27;4.63;;;1.70;;
23266;SDS011;11802;53.160;8.214;2023-07-13T11:43:01;2.67;;;1.27;;
23266;SDS011;11802;53.160;8.214;2023-07-13T11:45:27;3.88;;;1.60;;
23266;SDS011;11802;53.160;8.214;2023-07-13T11:47:53;3.33;;;1.70;;
23266;SDS011;11802;53.160;8.214;2023-07-13T11:50:22;7.30;;;1.75;;
23266;SDS011;11802;53.160;8.214;2023-07-13T11:52:49;3.25;;;1.58;;
23266;SDS011;11802;53.160;8.214;2023-07-13T11:55:19;4.88;;;1.50;;
23266;SDS011;11802;53.160;8.214;2023-07-13T11:58:04;4.03;;;1.83;;
23266;SDS011;11802;53.160;8.214;2023-07-13T12:00:33;4.05;;;2.08;;
23266;SDS011;11802;53.160;8.214;2023-07-13T12:03:00;4.38;;;2.03;;
23266;SDS011;11802;53.160;8.214;2023-07-13T12:05:29;4.85;;;1.83;;
23266;SDS011;11802;53.160;8.214;2023-07-13T12:07:57;2.58;;;1.60;;
23266;SDS011;11802;53.160;8.214;2023-07-13T12:10:24;6.82;;;1.98;;
23266;SDS011;11802;53.160;8.214;2023-07-13T12:12:52;3.97;;;1.67;;
23266;SDS011;11802;53.160;8.214;2023-07-13T12:15:20;3.60;;;1.80;;
23266;SDS011;11802;53.160;8.214;2023-07-13T12:17:47;4.50;;;2.20;;
23266;SDS011;11802;53.160;8.214;2023-07-13T12:20:35;6.50;;;2.20;;
23266;SDS011;11802;53.160;8.214;2023-07-13T12:23:04;3.33;;;1.50;;
23266;SDS011;11802;53.160;8.214;2023-07-13T12:25:31;4.50;;;1.75;;
23266;SDS011;11802;53.160;8.214;2023-07-13T12:27:56;3.97;;;1.70;;
23266;SDS011;11802;53.160;8.214;2023-07-13T12:30:26;4.07;;;1.80;;
23266;SDS011;11802;53.160;8.214;2023-07-13T12:33:02;4.50;;;1.80;;
23266;SDS011;11802;53.160;8.214;2023-07-13T12:35:39;3.50;;;1.70;;
23266;SDS011;11802;53.160;8.214;2023-07-13T12:38:14;3.67;;;1.50;;
23266;SDS011;11802;53.160;8.214;2023-07-13T12:40:40;2.72;;;1.70;;
23266;SDS011;11802;53.160;8.214;2023-07-13T12:43:11;3.10;;;1.55;;
23266;SDS011;11802;53.160;8.214;2023-07-13T12:45:38;1.98;;;1.40;;
23266;SDS011;11802;53.160;8.214;2023-07-13T12:48:14;2.58;;;1.25;;
23266;SDS011;11802;53.160;8.214;2023-07-13T12:50:41;2.72;;;1.40;;
23266;SDS011;11802;53.160;8.214;2023-07-13T12:53:21;3.65;;;1.52;;
23266;SDS011;11802;53.160;8.214;2023-07-13T12:55:55;5.63;;;1.73;;
23266;SDS011;11802;53.160;8.214;2023-07-13T12:58:27;2.53;;;1.50;;
23266;SDS011;11802;53.160;8.214;2023-07-13T13:00:56;3.05;;;1.17;;
23266;SDS011;11802;53.160;8.214;2023-07-13T13:05:58;2.92;;;1.63;;
23266;SDS011;11802;53.160;8.214;2023-07-13T13:08:24;3.15;;;1.70;;
23266;SDS011;11802;53.160;8.214;2023-07-13T13:10:50;3.70;;;1.50;;
23266;SDS011;11802;53.160;8.214;2023-07-13T13:13:15;4.22;;;1.48;;
23266;SDS011;11802;53.160;8.214;2023-07-13T13:15:41;3.10;;;1.48;;
23266;SDS011;11802;53.160;8.214;2023-07-13T13:18:14;2.63;;;1.25;;
23266;SDS011;11802;53.160;8.214;2023-07-13T13:20:42;3.25;;;1.42;;
23266;SDS011;11802;53.160;8.214;2023-07-13T13:23:11;3.15;;;1.60;;
23266;SDS011;11802;53.160;8.214;2023-07-13T13:25:40;4.88;;;1.58;;
23266;SDS011;11802;53.160;8.214;2023-07-13T13:28:09;5.15;;;1.60;;
23266;SDS011;11802;53.160;8.214;2023-07-13T13:30:39;1.30;;;1.02;;
23266;SDS011;11802;53.160;8.214;2023-07-13T13:33:07;6.57;;;1.50;;
23266;SDS011;11802;53.160;8.214;2023-07-13T13:35:36;2.58;;;1.40;;
23266;SDS011;11802;53.160;8.214;2023-07-13T13:38:01;2.67;;;1.45;;
23266;SDS011;11802;53.160;8.214;2023-07-13T13:40:27;4.05;;;1.40;;
23266;SDS011;11802;53.160;8.214;2023-07-13T13:42:53;3.35;;;1.73;;
23266;SDS011;11802;53.160;8.214;2023-07-13T13:45:20;3.08;;;1.75;;
23266;SDS011;11802;53.160;8.214;2023-07-13T13:47:46;2.65;;;1.73;;
23266;SDS011;11802;53.160;8.214;2023-07-13T13:50:13;7.28;;;1.90;;
23266;SDS011;11802;53.160;8.214;2023-07-13T13:52:44;5.55;;;1.98;;
23266;SDS011;11802;53.160;8.214;2023-07-13T13:55:13;3.58;;;1.67;;
23266;SDS011;11802;53.160;8.214;2023-07-13T13:57:46;4.47;;;2.00;;
23266;SDS011;11802;53.160;8.214;2023-07-13T14:00:13;3.70;;;1.55;;
23266;SDS011;11802;53.160;8.214;2023-07-13T14:02:45;1.77;;;1.17;;
23266;SDS011;11802;53.160;8.214;2023-07-13T14:05:13;4.47;;;1.40;;
23266;SDS011;11802;53.160;8.214;2023-07-13T14:07:40;3.78;;;1.90;;
23266;SDS011;11802;53.160;8.214;2023-07-13T14:10:24;3.90;;;1.70;;
23266;SDS011;11802;53.160;8.214;2023-07-13T14:12:51;5.10;;;1.63;;
23266;SDS011;11802;53.160;8.214;2023-07-13T14:15:26;3.75;;;1.50;;
23266;SDS011;11802;53.160;8.214;2023-07-13T14:17:53;4.10;;;2.00;;
23266;SDS011;11802;53.160;8.214;2023-07-13T14:20:20;17.30;;;4.70;;
23266;SDS011;11802;53.160;8.214;2023-07-13T14:22:48;15.65;;;4.22;;
23266;SDS011;11802;53.160;8.214;2023-07-13T14:25:15;3.15;;;1.77;;
23266;SDS011;11802;53.160;8.214;2023-07-13T14:27:42;4.53;;;2.00;;
23266;SDS011;11802;53.160;8.214;2023-07-13T14:30:18;4.68;;;1.30;;
23266;SDS011;11802;53.160;8.214;2023-07-13T14:32:45;5.60;;;1.50;;
23266;SDS011;11802;53.160;8.214;2023-07-13T14:35:12;2.85;;;1.10;;
23266;SDS011;11802;53.160;8.214;2023-07-13T14:37:39;1.10;;;0.80;;
23266;SDS011;11802;53.160;8.214;2023-07-13T14:40:13;5.47;;;1.40;;
23266;SDS011;11802;53.160;8.214;2023-07-13T14:42:39;3.80;;;1.30;;
23266;SDS011;11802;53.160;8.214;2023-07-13T14:45:05;2.67;;;1.10;;
23266;SDS011;11802;53.160;8.214;2023-07-13T14:47:36;2.13;;;1.05;;
23266;SDS011;11802;53.160;8.214;2023-07-13T14:50:02;2.42;;;1.00;;
23266;SDS011;11802;53.160;8.214;2023-07-13T14:52:30;4.85;;;1.48;;
23266;SDS011;11802;53.160;8.214;2023-07-13T14:54:56;5.07;;;1.77;;
23266;SDS011;11802;53.160;8.214;2023-07-13T14:57:21;4.85;;;1.73;;
23266;SDS011;11802;53.160;8.214;2023-07-13T14:59:47;7.20;;;2.08;;
23266;SDS011;11802;53.160;8.214;2023-07-13T15:02:14;5.07;;;1.98;;
23266;SDS011;11802;53.160;8.214;2023-07-13T15:04:55;2.60;;;1.67;;
23266;SDS011;11802;53.160;8.214;2023-07-13T15:07:21;4.70;;;1.98;;
23266;SDS011;11802;53.160;8.214;2023-07-13T15:09:48;4.05;;;1.67;;
23266;SDS011;11802;53.160;8.214;2023-07-13T15:12:14;4.82;;;1.70;;
23266;SDS011;11802;53.160;8.214;2023-07-13T15:14:39;2.45;;;1.52;;
23266;SDS011;11802;53.160;8.214;2023-07-13T15:17:23;6.40;;;2.47;;
23266;SDS011;11802;53.160;8.214;2023-07-13T15:19:57;3.10;;;1.45;;
23266;SDS011;11802;53.160;8.214;2023-07-13T15:22:23;3.58;;;1.30;;
23266;SDS011;11802;53.160;8.214;2023-07-13T15:24:49;2.88;;;1.60;;
23266;SDS011;11802;53.160;8.214;2023-07-13T15:27:15;3.65;;;1.90;;
23266;SDS011;11802;53.160;8.214;2023-07-13T15:29:40;4.32;;;2.05;;